Kirkland, Quebec

12:08 PM EDT on June 28, 2017 (GMT -0400)
Pierrefonds | | Change Station

Elev 112 ft 45.45 °N, 73.89 °W | Updated 2 minutes ago

Partly Cloudy
Partly Cloudy
74.6 °F
Feels Like 77 °F
N
3.5
Wind Variable Wind from SE
Gusts 6.8 mph

Today
High -- | Low -- °F
--% Chance of Precip.
Yesterday
High -- | Low -- °F
Precip. -- in
Pressure 29.98 in
Visibility 30.0 miles
Clouds Few 3500 ft
Few 4500 ft
Scattered Clouds 24000 ft
Heat Index 77 °F
Dew Point 57 °F
Humidity 55%
Rainfall 0.00 in
Snow Depth Not available.
5:09 AM 8:48 PM
Waxing Crescent, 26% visible
METAR CYUL 281600Z 22015G20KT 30SM FEW035 FEW045 SCT240 20/13 A2997 RMK CU1SC1CI1 SLP152 DENSITY ALT 700FT
Pressure 29.98 in
Visibility 30.0 miles
Clouds Few 3500 ft
Few 4500 ft
Scattered Clouds 24000 ft
Heat Index 77 °F
Dew Point 57 °F
Humidity 55%
Rainfall 0.00 in
Snow Depth Not available.
5:09 AM 8:48 PM
Waxing Crescent, 26% visible
METAR CYUL 281600Z 22015G20KT 30SM FEW035 FEW045 SCT240 20/13 A2997 RMK CU1SC1CI1 SLP152 DENSITY ALT 700FT

Get Severe Weather Alerts

Thanks for signing up!

Be on the lookout for a verification email in your inbox.

You'll start receiving the daily forecast at 6 AM.

×

10-Day Weather Forecast

Almanac

Astronomy

Jun. 28, 2017 Rise Set
Actual Time
Civil Twilight
Nautical Twilight
Astronomical Twilight
Moon
Length of Visible Light
Length of Day
Tomorrow will be .
, % of the Moon is Illuminated

Today's Extremes

Country Highs Country Lows

Community

WunderPhotos

Category 6

Welcome to Category 6. This is the collective home for Weather Underground's featured writeups by Dr. Jeff Masters (right), Bob Henson (left), Chris Burt, and other regular contributors.

Nearby

Air Quality

  Air Quality AQ Index Pollutant
Not available.

Snow Depth

Station Depth Elevation

Earthquake Activity

City Distance Mag. Time & Date
Minimum magnitude displayed is 2.5.

Coastal Water Temperatures

Place Temperature

Stations

Nearby Weather Stations

Station Location Temp. Windchill Dew Point Humidity Wind Precip. Elev Updated Type
                   

Watches & Warnings

There are currently no watches in effect.